Alledonia, Ohio
Current Conditions -  °F | °C
As of 4:15 AM on Thursday 27 Nov 2014 (Local Time) from KHLG Reporting Station
Haze Haze  
Wind Chill:   Ceiling: 600
Heat Index:   Visibility: 2mi
Dew Point: -1°   Wind: 0mph
Humidity: 96%   Direction: NA
Pressure: 29.99"   Gusts: NA
Location:  39.9°N, 80.97°W
Report Text: KHLG 270915Z AUTO 00000KT 2SM BR BKN006 OVC012 00/M01 A2999 RMK AO2 CIG 005V010 T00001006
Loading
Personal Weather Stations






























Interactive Weather Map New forecast layout! Learn more

10-Day Weather Forecast

Advertisements
Track Severe Weather on mobile